createdAt,value
2023-01-19T00:01:36.953Z,-0.50
2023-01-19T00:04:03.586Z,-0.50
2023-01-19T00:06:30.116Z,-0.50
2023-01-19T00:08:57.253Z,-0.50
2023-01-19T00:11:23.734Z,-0.40
2023-01-19T00:13:51.243Z,-0.40
2023-01-19T00:16:18.821Z,-0.40
2023-01-19T00:18:45.853Z,-0.40
2023-01-19T00:21:15.081Z,-0.40
2023-01-19T00:23:42.982Z,-0.40
2023-01-19T00:26:10.556Z,-0.40
2023-01-19T00:28:37.480Z,-0.40
2023-01-19T00:31:04.061Z,-0.40
2023-01-19T00:33:31.222Z,-0.40
2023-01-19T00:35:58.174Z,-0.40
2023-01-19T00:38:24.627Z,-0.30
2023-01-19T00:40:51.520Z,-0.30
2023-01-19T00:43:17.979Z,-0.40
2023-01-19T00:45:45.215Z,-0.20
2023-01-19T00:48:12.123Z,-0.30
2023-01-19T00:50:38.573Z,-0.30
2023-01-19T00:53:05.484Z,-0.30
2023-01-19T00:55:33.841Z,-0.40
2023-01-19T00:58:00.321Z,-0.40
2023-01-19T01:00:27.262Z,-0.40
2023-01-19T01:02:54.557Z,-0.40
2023-01-19T01:05:21.963Z,-0.40
2023-01-19T01:07:49.695Z,-0.40
2023-01-19T01:10:21.888Z,-0.40
2023-01-19T01:12:56.373Z,-0.40
2023-01-19T01:15:26.187Z,-0.40
2023-01-19T01:17:53.372Z,-0.40
2023-01-19T01:20:24.247Z,-0.40
2023-01-19T01:22:51.958Z,-0.30
2023-01-19T01:25:19.967Z,-0.40
2023-01-19T01:27:46.926Z,-0.40
2023-01-19T01:30:14.047Z,-0.40
2023-01-19T01:32:43.921Z,-0.40
2023-01-19T01:35:10.854Z,-0.40
2023-01-19T01:37:38.277Z,-0.40
2023-01-19T01:40:05.568Z,-0.40
2023-01-19T01:42:33.483Z,-0.40
2023-01-19T01:45:01.515Z,-0.30
2023-01-19T01:47:32.014Z,-0.30
2023-01-19T01:50:05.003Z,-0.30
2023-01-19T01:52:33.432Z,-0.30
2023-01-19T01:55:00.562Z,-0.30
2023-01-19T01:57:28.266Z,-0.30
2023-01-19T01:59:55.493Z,-0.30
2023-01-19T02:02:43.196Z,-0.30
2023-01-19T02:05:12.408Z,-0.30
2023-01-19T02:08:04.773Z,-0.30
2023-01-19T02:10:50.711Z,-0.40
2023-01-19T02:13:19.893Z,-0.40
2023-01-19T02:15:54.266Z,-0.40
2023-01-19T02:18:22.189Z,-0.40
2023-01-19T02:20:59.295Z,-0.30
2023-01-19T02:23:43.789Z,-0.30
2023-01-19T02:26:13.496Z,-0.30
2023-01-19T02:28:41.507Z,-0.30
2023-01-19T02:31:08.399Z,-0.40
2023-01-19T02:33:35.407Z,-0.40
2023-01-19T02:36:02.163Z,-0.40
2023-01-19T02:38:29.457Z,-0.30
2023-01-19T02:40:57.712Z,-0.30
2023-01-19T02:43:24.805Z,-0.20
2023-01-19T02:45:51.438Z,-0.10
2023-01-19T02:48:19.041Z,-0.10
2023-01-19T02:50:49.040Z,0.00
2023-01-19T02:53:34.585Z,0.00
2023-01-19T02:56:20.498Z,0.10
2023-01-19T02:59:06.305Z,0.10
2023-01-19T03:01:54.431Z,0.20
2023-01-19T03:04:28.730Z,0.20
2023-01-19T03:07:00.682Z,0.20
2023-01-19T03:09:35.765Z,0.20
2023-01-19T03:12:09.594Z,0.30
2023-01-19T03:14:39.123Z,0.30
2023-01-19T03:17:07.387Z,0.30
2023-01-19T03:19:40.045Z,0.40
2023-01-19T03:22:14.499Z,0.40
2023-01-19T03:24:45.514Z,0.40
2023-01-19T03:27:14.715Z,0.50
2023-01-19T03:29:43.450Z,0.50
2023-01-19T03:32:12.180Z,0.50
2023-01-19T03:34:39.506Z,0.60
2023-01-19T03:37:07.693Z,0.60
2023-01-19T03:39:34.395Z,0.60
2023-01-19T03:42:06.029Z,0.60
2023-01-19T03:44:34.381Z,0.70
2023-01-19T03:47:01.581Z,0.70
2023-01-19T03:49:30.669Z,0.70
2023-01-19T03:51:59.262Z,0.70
2023-01-19T03:54:25.995Z,0.70
2023-01-19T03:56:52.944Z,0.70
2023-01-19T03:59:20.372Z,0.70
2023-01-19T04:01:47.794Z,0.70
2023-01-19T04:04:15.492Z,0.70
2023-01-19T04:06:42.305Z,0.70
2023-01-19T04:09:09.214Z,0.70
2023-01-19T04:11:35.660Z,0.80
2023-01-19T04:14:02.556Z,0.80
2023-01-19T04:16:29.025Z,0.80
2023-01-19T04:18:56.741Z,0.80
2023-01-19T04:21:23.635Z,0.90
2023-01-19T04:23:50.533Z,0.90
2023-01-19T04:26:17.088Z,0.90
2023-01-19T04:28:44.040Z,0.90
2023-01-19T04:31:10.707Z,1.00
2023-01-19T04:33:37.630Z,1.00
2023-01-19T04:36:04.286Z,1.00
2023-01-19T04:38:31.269Z,1.00
2023-01-19T04:40:57.716Z,1.10
2023-01-19T04:43:24.207Z,1.10
2023-01-19T04:45:51.186Z,1.10
2023-01-19T04:48:18.399Z,1.10
2023-01-19T04:50:44.919Z,1.10
2023-01-19T04:53:13.963Z,1.10
2023-01-19T04:55:40.688Z,1.20
2023-01-19T04:58:07.663Z,1.20
2023-01-19T05:00:34.624Z,1.10
2023-01-19T05:03:02.051Z,1.20
2023-01-19T05:05:29.495Z,1.10
2023-01-19T05:07:56.057Z,1.10
2023-01-19T05:10:22.544Z,1.10
2023-01-19T05:12:49.871Z,1.10
2023-01-19T05:15:16.791Z,1.10
2023-01-19T05:17:43.248Z,1.10
2023-01-19T05:20:11.172Z,1.10
2023-01-19T05:22:39.076Z,1.10
2023-01-19T05:25:09.160Z,1.10
2023-01-19T05:27:36.800Z,1.00
2023-01-19T05:30:05.340Z,1.00
2023-01-19T05:32:32.391Z,1.00
2023-01-19T05:34:59.343Z,1.00
2023-01-19T05:37:25.981Z,1.10
2023-01-19T05:39:53.516Z,1.00
2023-01-19T05:42:20.215Z,1.10
2023-01-19T05:44:47.165Z,1.10
2023-01-19T05:47:13.630Z,1.10
2023-01-19T05:49:40.264Z,1.10
2023-01-19T05:52:06.828Z,1.10
2023-01-19T05:54:33.296Z,1.10
2023-01-19T05:57:00.243Z,1.10
2023-01-19T05:59:26.742Z,1.10
2023-01-19T06:01:54.235Z,1.10
2023-01-19T06:04:21.591Z,1.10
2023-01-19T06:06:48.452Z,1.50
2023-01-19T06:09:15.556Z,1.20
2023-01-19T06:11:42.504Z,1.20
2023-01-19T06:14:10.186Z,1.20
2023-01-19T06:16:36.805Z,1.20
2023-01-19T06:19:03.854Z,1.30
2023-01-19T06:21:30.762Z,1.30
2023-01-19T06:23:57.419Z,1.30
2023-01-19T06:26:24.515Z,1.30
2023-01-19T06:28:51.197Z,1.30
2023-01-19T06:31:17.910Z,1.30
2023-01-19T06:33:44.834Z,1.30
2023-01-19T06:36:11.300Z,1.40
2023-01-19T06:38:38.273Z,1.30
2023-01-19T06:41:04.867Z,1.40
2023-01-19T06:43:31.482Z,1.40
2023-01-19T06:45:58.379Z,1.40
2023-01-19T06:48:25.338Z,1.40
2023-01-19T06:50:51.849Z,1.40
2023-01-19T06:53:21.051Z,1.40
2023-01-19T06:55:47.823Z,1.50
2023-01-19T06:58:14.305Z,1.50
2023-01-19T07:00:41.300Z,1.50
2023-01-19T07:03:08.316Z,1.50
2023-01-19T07:05:36.116Z,1.50
2023-01-19T07:08:03.180Z,1.50
2023-01-19T07:11:25.421Z,1.50
2023-01-19T07:13:16.987Z,1.50
2023-01-19T07:15:44.060Z,1.50
2023-01-19T07:18:10.984Z,1.50
2023-01-19T07:20:38.302Z,1.50
2023-01-19T07:23:04.819Z,1.50
2023-01-19T07:25:31.951Z,1.50
2023-01-19T07:27:58.869Z,1.50
2023-01-19T07:30:25.842Z,1.50
2023-01-19T07:32:54.536Z,1.50
2023-01-19T07:35:22.313Z,1.50
2023-01-19T07:37:49.342Z,1.50
2023-01-19T07:40:16.022Z,1.50
2023-01-19T07:42:47.069Z,1.50
2023-01-19T07:45:15.531Z,1.50
2023-01-19T07:47:45.679Z,1.50
2023-01-19T07:50:13.584Z,1.50
2023-01-19T07:52:40.607Z,1.50
2023-01-19T07:55:08.006Z,1.50
2023-01-19T07:57:35.192Z,1.50
2023-01-19T08:00:03.287Z,1.50
2023-01-19T08:02:30.595Z,1.50
2023-01-19T08:04:57.242Z,1.40
2023-01-19T08:07:24.162Z,1.50
2023-01-19T08:09:51.095Z,1.50
2023-01-19T08:12:18.222Z,1.60
2023-01-19T08:14:45.119Z,1.60
2023-01-19T08:17:14.349Z,1.60
2023-01-19T08:19:42.156Z,1.60
2023-01-19T08:22:08.658Z,1.60
2023-01-19T08:24:35.564Z,1.60
2023-01-19T08:27:03.432Z,1.70
2023-01-19T08:29:32.155Z,1.70
2023-01-19T08:32:00.116Z,1.70
2023-01-19T08:34:27.127Z,1.70
2023-01-19T08:36:54.399Z,1.70
2023-01-19T08:39:21.103Z,1.80
2023-01-19T08:41:48.089Z,1.80
2023-01-19T08:44:15.867Z,1.90
2023-01-19T08:46:42.444Z,1.90
2023-01-19T08:49:09.671Z,1.90
2023-01-19T08:51:36.653Z,2.00
2023-01-19T08:54:03.141Z,2.00
2023-01-19T08:56:29.653Z,2.10
2023-01-19T08:59:08.649Z,2.10
2023-01-19T09:01:37.177Z,2.10
2023-01-19T09:04:04.318Z,2.10
2023-01-19T09:06:30.866Z,2.30
2023-01-19T09:08:58.070Z,2.30
2023-01-19T09:11:24.535Z,2.40
2023-01-19T09:13:51.670Z,2.40
2023-01-19T09:16:18.693Z,2.50
2023-01-19T09:18:45.944Z,2.70
2023-01-19T09:21:13.723Z,2.60
2023-01-19T09:23:40.330Z,2.70
2023-01-19T09:26:06.860Z,2.80
2023-01-19T09:28:33.782Z,2.90
2023-01-19T09:31:04.004Z,2.90
2023-01-19T09:33:30.959Z,2.90
2023-01-19T09:35:58.037Z,3.00
2023-01-19T09:38:25.783Z,3.00
2023-01-19T09:40:56.858Z,2.90
2023-01-19T09:43:41.339Z,2.90
2023-01-19T09:46:12.196Z,3.00
2023-01-19T09:49:06.492Z,2.90
2023-01-19T09:51:34.943Z,2.90
2023-01-19T09:54:04.242Z,2.90
2023-01-19T09:56:31.627Z,2.90
2023-01-19T09:58:58.703Z,2.80
2023-01-19T10:01:48.761Z,2.70
2023-01-19T10:04:27.430Z,2.70
2023-01-19T10:06:59.487Z,2.60
2023-01-19T10:09:32.440Z,2.60
2023-01-19T10:12:04.970Z,2.60
2023-01-19T10:14:36.814Z,2.60
2023-01-19T10:17:10.027Z,2.60
2023-01-19T10:19:40.510Z,2.70
2023-01-19T10:22:21.258Z,2.70
2023-01-19T10:24:50.669Z,2.70
2023-01-19T10:27:18.320Z,2.70
2023-01-19T10:29:45.916Z,2.60
2023-01-19T10:32:21.153Z,2.60
2023-01-19T10:34:49.501Z,2.70
2023-01-19T10:37:31.747Z,2.80
2023-01-19T10:40:02.740Z,2.90
2023-01-19T10:42:30.430Z,3.00
2023-01-19T10:44:57.557Z,3.00
2023-01-19T10:47:30.000Z,3.00
2023-01-19T10:49:56.520Z,3.00
2023-01-19T10:52:36.788Z,3.10
2023-01-19T10:55:06.323Z,3.10
2023-01-19T10:57:36.994Z,3.10
2023-01-19T11:00:26.928Z,3.20
2023-01-19T11:02:53.969Z,3.20
2023-01-19T11:05:25.272Z,3.30
2023-01-19T11:07:51.956Z,3.20
2023-01-19T11:10:23.114Z,3.20
2023-01-19T11:12:55.958Z,3.10
2023-01-19T11:15:23.908Z,3.10
2023-01-19T11:17:51.050Z,3.00
2023-01-19T11:20:19.871Z,3.00
2023-01-19T11:22:48.799Z,2.90
2023-01-19T11:25:31.411Z,2.80
2023-01-19T11:27:58.441Z,2.70
2023-01-19T11:30:25.687Z,2.70
2023-01-19T11:32:52.904Z,2.70
2023-01-19T11:35:33.151Z,2.50
2023-01-19T11:38:27.685Z,2.50
2023-01-19T11:40:55.407Z,2.40
2023-01-19T11:43:23.968Z,2.50
2023-01-19T11:45:50.601Z,2.60
2023-01-19T11:48:22.301Z,2.70
2023-01-19T11:50:49.618Z,2.90
2023-01-19T11:53:20.491Z,3.00
2023-01-19T11:55:48.724Z,3.10
2023-01-19T11:58:16.492Z,3.20
2023-01-19T12:00:45.251Z,3.20
2023-01-19T12:03:21.172Z,3.30
2023-01-19T12:05:48.975Z,3.30
2023-01-19T12:08:21.158Z,3.30
2023-01-19T12:10:48.092Z,3.30
2023-01-19T12:13:19.087Z,3.20
2023-01-19T12:15:47.602Z,3.30
2023-01-19T12:18:25.014Z,3.30
2023-01-19T12:20:53.472Z,2.30
2023-01-19T12:23:20.470Z,3.40
2023-01-19T12:26:10.287Z,3.40
2023-01-19T12:28:39.485Z,3.40
2023-01-19T12:31:06.544Z,3.40
2023-01-19T12:33:34.941Z,3.40
2023-01-19T12:36:04.437Z,3.50
2023-01-19T12:38:48.037Z,3.40
2023-01-19T12:41:26.551Z,3.40
2023-01-19T12:44:16.473Z,3.30
2023-01-19T12:46:46.368Z,3.30
2023-01-19T12:49:29.602Z,3.20
2023-01-19T12:52:12.071Z,3.10
2023-01-19T12:54:40.658Z,3.10
2023-01-19T12:57:22.824Z,3.10
2023-01-19T12:59:55.635Z,3.00
2023-01-19T13:02:25.262Z,3.00
2023-01-19T13:05:07.229Z,2.90
2023-01-19T13:07:52.990Z,2.80
2023-01-19T13:10:38.720Z,2.80
2023-01-19T13:13:16.833Z,2.80
2023-01-19T13:15:44.442Z,2.80
2023-01-19T13:18:18.005Z,2.80
2023-01-19T13:20:48.990Z,2.80
2023-01-19T13:23:26.665Z,2.80
2023-01-19T13:26:03.763Z,2.80
2023-01-19T13:28:32.502Z,2.80
2023-01-19T13:31:00.340Z,2.80
2023-01-19T13:33:28.033Z,2.80
2023-01-19T13:35:56.521Z,2.80
2023-01-19T13:38:24.151Z,2.90
2023-01-19T13:40:51.228Z,2.90
2023-01-19T13:43:19.461Z,2.80
2023-01-19T13:45:50.715Z,2.90
2023-01-19T13:48:19.742Z,2.80
2023-01-19T13:50:56.532Z,2.90
2023-01-19T13:53:24.591Z,2.60
2023-01-19T13:56:05.612Z,2.90
2023-01-19T13:58:32.729Z,2.90
2023-01-19T14:00:59.735Z,2.90
2023-01-19T14:03:26.649Z,2.90
2023-01-19T14:05:54.598Z,3.00
2023-01-19T14:08:22.145Z,3.00
2023-01-19T14:10:54.921Z,3.00
2023-01-19T14:13:22.822Z,3.00
2023-01-19T14:15:50.533Z,3.00
2023-01-19T14:18:17.055Z,3.10
2023-01-19T14:21:03.159Z,3.10
2023-01-19T14:23:40.195Z,3.10
2023-01-19T14:26:27.057Z,3.10
2023-01-19T14:28:53.963Z,3.10
2023-01-19T14:31:24.482Z,3.10
2023-01-19T14:33:52.649Z,3.10
2023-01-19T14:36:36.178Z,3.20
2023-01-19T14:39:04.175Z,3.10
2023-01-19T14:41:37.090Z,3.10
2023-01-19T14:44:07.671Z,3.10
2023-01-19T14:46:34.184Z,3.10
2023-01-19T14:49:03.131Z,3.10
2023-01-19T14:51:30.825Z,3.10
2023-01-19T14:53:58.936Z,3.10
2023-01-19T14:56:30.088Z,3.00
2023-01-19T14:58:57.597Z,3.00
2023-01-19T15:01:24.909Z,3.00
2023-01-19T15:03:51.916Z,3.00
2023-01-19T15:06:19.899Z,3.00
2023-01-19T15:08:47.382Z,3.00
2023-01-19T15:11:22.753Z,3.10
2023-01-19T15:13:50.259Z,3.00
2023-01-19T15:16:17.565Z,3.00
2023-01-19T15:18:44.114Z,3.10
2023-01-19T15:21:15.596Z,3.10
2023-01-19T15:23:42.587Z,3.10
2023-01-19T15:26:12.944Z,3.10
2023-01-19T15:28:40.068Z,3.10
2023-01-19T15:31:06.631Z,3.00
2023-01-19T15:33:33.634Z,3.00
2023-01-19T15:36:00.149Z,3.00
2023-01-19T15:38:28.092Z,3.00
2023-01-19T15:40:54.576Z,3.00
2023-01-19T15:43:21.819Z,3.00
2023-01-19T15:45:51.316Z,3.00
2023-01-19T15:48:20.253Z,2.90
2023-01-19T15:50:47.689Z,2.90
2023-01-19T15:53:16.062Z,2.80
2023-01-19T15:55:42.662Z,2.70
2023-01-19T15:58:09.639Z,2.70
2023-01-19T16:00:36.401Z,2.60
2023-01-19T16:03:19.540Z,2.50
2023-01-19T16:05:47.565Z,2.50
2023-01-19T16:08:14.675Z,2.50
2023-01-19T16:10:42.220Z,2.50
2023-01-19T16:13:09.233Z,2.50
2023-01-19T16:15:36.789Z,2.50
2023-01-19T16:18:04.551Z,2.50
2023-01-19T16:20:31.859Z,2.50
2023-01-19T16:23:09.662Z,2.60
2023-01-19T16:25:40.407Z,2.60
2023-01-19T16:28:08.553Z,2.60
2023-01-19T16:30:35.193Z,2.60
2023-01-19T16:33:02.170Z,2.60
2023-01-19T16:35:29.107Z,2.60
2023-01-19T16:37:55.566Z,2.60
2023-01-19T16:40:22.472Z,2.60
2023-01-19T16:42:49.215Z,2.60
2023-01-19T16:45:17.061Z,2.60
2023-01-19T16:47:45.356Z,2.50
2023-01-19T16:50:12.616Z,2.40
2023-01-19T16:52:39.331Z,2.30
2023-01-19T16:55:09.683Z,2.20
2023-01-19T16:57:37.321Z,2.20
2023-01-19T17:00:03.924Z,2.10
2023-01-19T17:02:31.867Z,2.20
2023-01-19T17:05:01.586Z,2.10
2023-01-19T17:07:28.778Z,2.20
2023-01-19T17:09:55.966Z,2.10
2023-01-19T17:12:23.764Z,2.20
2023-01-19T17:14:50.871Z,2.20
2023-01-19T17:17:17.396Z,2.20
2023-01-19T17:19:45.468Z,2.20
2023-01-19T17:22:12.907Z,2.10
2023-01-19T17:24:42.666Z,2.10
2023-01-19T17:27:09.364Z,2.10
2023-01-19T17:29:36.344Z,2.10
2023-01-19T17:32:02.904Z,1.90
2023-01-19T17:34:29.850Z,1.90
2023-01-19T17:37:02.650Z,1.80
2023-01-19T17:39:32.348Z,1.70
2023-01-19T17:41:59.264Z,1.60
2023-01-19T17:44:25.809Z,1.60
2023-01-19T17:46:53.075Z,1.40
2023-01-19T17:49:20.041Z,1.40
2023-01-19T17:51:51.704Z,1.30
2023-01-19T17:54:18.644Z,1.30
2023-01-19T17:56:45.107Z,1.20
2023-01-19T17:59:12.064Z,1.20
2023-01-19T18:01:40.269Z,1.10
2023-01-19T18:04:07.982Z,1.00
2023-01-19T18:06:35.019Z,1.00
2023-01-19T18:09:01.557Z,0.90
2023-01-19T18:11:28.717Z,0.90
2023-01-19T18:13:55.232Z,0.80
2023-01-19T18:16:24.130Z,0.80
2023-01-19T18:18:53.852Z,0.80
2023-01-19T18:21:21.600Z,0.80
2023-01-19T18:23:48.962Z,0.70
2023-01-19T18:26:17.282Z,0.70
2023-01-19T18:28:44.314Z,0.70
2023-01-19T18:31:12.573Z,0.60
2023-01-19T18:33:39.994Z,0.60
2023-01-19T18:36:06.716Z,0.50
2023-01-19T18:38:34.225Z,0.50
2023-01-19T18:41:02.155Z,0.50
2023-01-19T18:43:29.564Z,0.50
2023-01-19T18:45:56.121Z,0.50
2023-01-19T18:48:23.173Z,0.50
2023-01-19T18:50:50.496Z,0.50
2023-01-19T18:53:16.999Z,0.50
2023-01-19T18:55:54.730Z,0.50
2023-01-19T18:58:21.256Z,0.50
2023-01-19T19:00:48.685Z,0.50
2023-01-19T19:03:15.957Z,0.60
2023-01-19T19:05:42.925Z,0.60
2023-01-19T19:08:09.985Z,0.70
2023-01-19T19:10:36.483Z,0.70
2023-01-19T19:13:03.419Z,0.70
2023-01-19T19:15:31.336Z,0.70
2023-01-19T19:17:57.848Z,0.70
2023-01-19T19:20:24.804Z,0.60
2023-01-19T19:22:51.643Z,0.60
2023-01-19T19:25:18.989Z,0.60
2023-01-19T19:27:47.720Z,0.60
2023-01-19T19:30:15.396Z,0.50
2023-01-19T19:32:42.562Z,0.50
2023-01-19T19:35:09.309Z,0.50
2023-01-19T19:37:35.770Z,0.50
2023-01-19T19:40:02.776Z,0.40
2023-01-19T19:42:30.465Z,0.40
2023-01-19T19:44:57.000Z,0.40
2023-01-19T19:47:24.875Z,0.40
2023-01-19T19:49:51.927Z,0.50
2023-01-19T19:52:19.466Z,0.40
2023-01-19T19:54:47.706Z,0.30
2023-01-19T19:57:14.190Z,0.30
2023-01-19T19:59:41.431Z,0.30
2023-01-19T20:02:10.056Z,0.20
2023-01-19T20:04:36.535Z,0.20
2023-01-19T20:07:03.521Z,0.20
2023-01-19T20:09:30.026Z,0.10
2023-01-19T20:11:56.499Z,0.10
2023-01-19T20:14:24.277Z,0.00
2023-01-19T20:16:51.236Z,0.00
2023-01-19T20:19:18.149Z,-0.10
2023-01-19T20:21:45.103Z,-1.50
2023-01-19T20:24:16.166Z,-0.10
2023-01-19T20:26:44.995Z,0.00
2023-01-19T20:29:11.521Z,-0.10
2023-01-19T20:31:40.432Z,-0.10
2023-01-19T20:34:08.120Z,-0.10
2023-01-19T20:36:34.897Z,-0.10
2023-01-19T20:39:08.683Z,0.00
2023-01-19T20:41:43.185Z,0.00
2023-01-19T20:44:10.507Z,-0.10
2023-01-19T20:46:37.415Z,-0.10
2023-01-19T20:49:03.874Z,0.00
2023-01-19T20:51:30.793Z,0.00
2023-01-19T20:53:57.283Z,0.00
2023-01-19T20:56:24.300Z,0.00
2023-01-19T20:58:50.768Z,0.10
2023-01-19T21:01:22.334Z,0.20
2023-01-19T21:03:49.068Z,0.30
2023-01-19T21:06:16.596Z,0.40
2023-01-19T21:08:43.593Z,0.40
2023-01-19T21:11:10.681Z,0.50
2023-01-19T21:13:37.598Z,0.50
2023-01-19T21:16:04.178Z,0.50
2023-01-19T21:18:31.187Z,0.50
2023-01-19T21:20:57.886Z,0.50
2023-01-19T21:23:25.632Z,0.40
2023-01-19T21:25:53.107Z,0.40
2023-01-19T21:28:20.094Z,0.40
2023-01-19T21:30:47.115Z,0.40
2023-01-19T21:33:14.156Z,0.40
2023-01-19T21:35:41.078Z,0.40
2023-01-19T21:38:07.558Z,0.40
2023-01-19T21:40:34.540Z,0.30
2023-01-19T21:43:01.017Z,0.30
2023-01-19T21:45:28.155Z,0.40
2023-01-19T21:47:54.694Z,0.40
2023-01-19T21:50:21.631Z,0.50
2023-01-19T21:52:48.109Z,0.50
2023-01-19T21:55:15.471Z,0.60
2023-01-19T21:57:42.543Z,0.70
2023-01-19T22:00:10.152Z,0.70
2023-01-19T22:02:39.149Z,0.70
2023-01-19T22:05:06.911Z,0.80
2023-01-19T22:07:33.865Z,0.80
2023-01-19T22:10:00.327Z,0.90
2023-01-19T22:12:27.252Z,0.90
2023-01-19T22:14:53.998Z,0.90
2023-01-19T22:17:20.939Z,0.90
2023-01-19T22:19:47.980Z,0.90
2023-01-19T22:22:14.984Z,0.90
2023-01-19T22:24:46.814Z,0.90
2023-01-19T22:27:13.853Z,0.90
2023-01-19T22:29:40.760Z,0.90
2023-01-19T22:32:07.306Z,0.80
2023-01-19T22:34:34.347Z,0.80
2023-01-19T22:37:00.982Z,0.80
2023-01-19T22:39:28.246Z,0.70
2023-01-19T22:41:54.727Z,0.70
2023-01-19T22:44:22.259Z,0.70
2023-01-19T22:46:50.090Z,0.60
2023-01-19T22:49:17.556Z,0.60
2023-01-19T22:51:44.849Z,0.50
2023-01-19T22:54:11.857Z,0.50
2023-01-19T22:56:39.239Z,0.40
2023-01-19T22:59:05.873Z,0.40
2023-01-19T23:01:35.106Z,0.40
2023-01-19T23:04:02.793Z,0.40
2023-01-19T23:06:30.791Z,0.30
2023-01-19T23:08:58.550Z,0.30
2023-01-19T23:11:29.490Z,0.30
2023-01-19T23:13:56.646Z,0.20
2023-01-19T23:16:23.652Z,0.20
2023-01-19T23:18:53.196Z,0.20
2023-01-19T23:21:20.899Z,0.20
2023-01-19T23:23:47.850Z,0.20
2023-01-19T23:26:16.233Z,0.10
2023-01-19T23:28:43.560Z,0.00
2023-01-19T23:31:14.456Z,0.00
2023-01-19T23:33:41.452Z,-0.10
2023-01-19T23:36:08.927Z,-0.10
2023-01-19T23:38:35.392Z,-0.20
2023-01-19T23:41:02.328Z,-0.20
2023-01-19T23:43:29.247Z,-0.20
2023-01-19T23:45:56.327Z,-0.30
2023-01-19T23:48:23.247Z,-0.30
2023-01-19T23:50:49.701Z,-0.30
2023-01-19T23:53:16.610Z,-0.30
2023-01-19T23:55:43.517Z,-0.30
2023-01-19T23:58:10.034Z,-0.20
